createdAt,value
2023-03-06T01:10:25.063Z,37.39
2023-03-06T01:11:41.090Z,37.38
2023-03-06T01:12:24.854Z,37.06
2023-03-06T01:13:25.051Z,37.12
2023-03-06T01:14:24.825Z,37.20
2023-03-06T01:16:46.051Z,37.65
2023-03-06T01:17:45.705Z,37.65
2023-03-06T01:20:37.917Z,37.95
2023-03-06T01:21:37.910Z,37.67
2023-03-06T01:30:58.800Z,37.63
2023-03-06T01:34:10.464Z,37.63
2023-03-06T01:35:26.100Z,37.81
2023-03-06T01:36:10.035Z,37.92
2023-03-06T01:37:09.850Z,37.66
2023-03-06T01:38:10.721Z,37.48
2023-03-06T01:39:11.790Z,37.54
2023-03-06T04:59:31.644Z,40.04
2023-03-06T05:06:31.645Z,39.78
2023-03-06T05:07:31.581Z,39.84
2023-03-06T05:13:31.637Z,39.99
2023-03-06T05:53:31.693Z,40.91
2023-03-06T06:01:31.489Z,40.92
2023-03-06T06:08:52.065Z,40.66
2023-03-06T06:09:55.498Z,40.92
2023-03-06T06:10:55.680Z,40.75
2023-03-06T06:11:55.430Z,40.85
2023-03-06T06:12:55.450Z,40.88
2023-03-06T06:13:55.427Z,40.78
2023-03-06T06:14:55.389Z,40.73
2023-03-06T06:15:55.385Z,40.94
2023-03-06T06:16:55.431Z,40.82
2023-03-06T06:17:55.318Z,40.75
2023-03-06T06:18:55.327Z,40.59
2023-03-06T06:19:55.360Z,40.55
2023-03-06T06:20:56.088Z,40.55
2023-03-06T06:21:55.292Z,40.49
2023-03-06T06:22:55.276Z,40.48
2023-03-06T06:23:55.288Z,40.55
2023-03-06T06:24:55.270Z,40.54
2023-03-06T06:25:55.267Z,40.61
2023-03-06T06:26:55.265Z,40.58
2023-03-06T06:27:55.351Z,40.52
2023-03-06T06:28:56.446Z,40.56
2023-03-06T06:29:55.237Z,40.60
2023-03-06T06:30:55.258Z,40.39
2023-03-06T06:31:55.253Z,40.47
2023-03-06T06:32:55.251Z,40.30
2023-03-06T06:33:55.218Z,40.80
2023-03-06T06:34:55.228Z,40.92
2023-03-06T06:35:56.082Z,40.50
2023-03-06T06:36:55.230Z,40.12
2023-03-06T06:37:55.349Z,40.00
2023-03-06T06:38:55.355Z,40.24
2023-03-06T06:39:55.452Z,40.59
2023-03-06T06:41:30.651Z,40.37
2023-03-06T06:42:09.971Z,40.34
2023-03-06T06:42:56.504Z,40.19
2023-03-06T06:43:57.114Z,40.17
2023-03-06T06:44:55.488Z,39.81
2023-03-06T08:17:57.453Z,37.02
2023-03-06T08:18:57.380Z,36.91
2023-03-06T08:19:57.209Z,37.10
2023-03-06T08:20:57.109Z,36.59
2023-03-06T08:22:00.137Z,36.60
2023-03-06T08:55:11.904Z,34.39
2023-03-06T09:41:31.706Z,30.78
2023-03-06T10:31:23.846Z,26.03
2023-03-06T10:36:21.025Z,25.44
2023-03-06T10:37:21.111Z,25.30
2023-03-06T10:38:20.596Z,25.36
2023-03-06T10:39:20.575Z,25.54
2023-03-06T10:40:20.337Z,24.90
2023-03-06T10:41:19.972Z,25.48
2023-03-06T10:42:19.983Z,25.08
2023-03-06T10:43:19.931Z,24.78
2023-03-06T10:44:19.918Z,24.91
2023-03-06T10:45:20.129Z,24.73
2023-03-06T10:46:19.928Z,24.92
2023-03-06T10:48:41.674Z,24.32
2023-03-06T10:49:41.366Z,24.57
2023-03-06T10:50:39.727Z,24.39
2023-03-06T10:51:40.335Z,24.74
2023-03-06T10:52:39.423Z,24.59
2023-03-06T10:53:39.440Z,23.79
2023-03-06T10:54:39.605Z,23.92
2023-03-06T10:55:39.393Z,23.57
2023-03-06T10:56:39.466Z,24.02
2023-03-06T10:57:39.439Z,23.33
2023-03-06T10:58:39.422Z,23.64
2023-03-06T10:59:39.454Z,22.86
2023-03-06T11:00:39.362Z,22.78
2023-03-06T11:01:39.458Z,22.01
2023-03-06T11:02:39.388Z,22.48
2023-03-06T11:03:39.457Z,21.93
2023-03-06T11:04:39.519Z,22.16
2023-03-06T11:05:39.464Z,22.70
2023-03-06T11:06:39.464Z,23.07
2023-03-06T11:08:59.092Z,22.38
2023-03-06T11:11:31.613Z,21.80
2023-03-06T11:12:19.963Z,22.05
2023-03-06T11:13:21.382Z,21.93
2023-03-06T13:17:21.672Z,19.94
2023-03-06T13:18:22.025Z,20.87
2023-03-06T13:19:21.549Z,20.22
2023-03-06T13:20:21.710Z,20.90
2023-03-06T13:21:21.456Z,20.37
2023-03-06T13:22:21.556Z,19.73
2023-03-06T13:23:21.477Z,20.33
2023-03-06T13:24:21.445Z,19.48
2023-03-06T13:25:21.531Z,20.02
2023-03-06T13:26:21.491Z,19.56
2023-03-06T13:27:21.732Z,19.44
2023-03-06T13:28:21.436Z,20.44
2023-03-06T13:29:21.406Z,19.73
2023-03-06T13:30:21.381Z,19.64
2023-03-06T13:31:27.215Z,20.50
2023-03-06T13:33:21.411Z,20.32
2023-03-06T13:34:21.395Z,20.01
2023-03-06T13:35:21.578Z,19.76
2023-03-06T13:36:21.445Z,19.86
2023-03-06T13:37:21.377Z,20.51
2023-03-06T13:38:21.369Z,19.88
2023-03-06T13:39:21.456Z,20.22
2023-03-06T13:40:21.624Z,19.67
2023-03-06T13:41:21.454Z,19.94
2023-03-06T13:42:21.404Z,20.10
2023-03-06T13:43:21.511Z,20.15
2023-03-06T13:45:41.230Z,20.43
2023-03-06T13:46:40.878Z,20.10
2023-03-06T13:48:06.450Z,20.13
2023-03-06T13:48:45.121Z,20.06
2023-03-06T13:49:40.744Z,20.40
2023-03-06T13:50:40.765Z,20.32
2023-03-06T13:51:40.686Z,20.48
2023-03-06T13:52:40.884Z,20.07
2023-03-06T13:53:40.857Z,20.91
2023-03-06T13:54:40.795Z,20.50
2023-03-06T13:55:40.917Z,20.74
2023-03-06T13:56:40.687Z,21.28
2023-03-06T13:57:40.877Z,21.55
2023-03-06T13:58:40.983Z,21.22
2023-03-06T13:59:40.761Z,20.92
2023-03-06T14:00:40.761Z,20.97
2023-03-06T14:01:40.926Z,21.56
2023-03-06T14:02:40.762Z,21.48
2023-03-06T14:03:40.803Z,21.58
2023-03-06T14:04:40.769Z,21.51
2023-03-06T14:05:40.967Z,21.61
2023-03-06T14:06:40.875Z,21.86
2023-03-06T14:07:40.964Z,21.89
2023-03-06T14:08:40.964Z,22.27
2023-03-06T14:09:40.976Z,22.49
2023-03-06T14:10:41.015Z,22.46
2023-03-06T14:11:41.033Z,22.62
2023-03-06T14:12:41.112Z,23.23
2023-03-06T14:13:47.200Z,23.31
2023-03-06T14:16:01.289Z,23.69
2023-03-06T14:17:00.830Z,23.58
2023-03-06T14:18:01.130Z,23.97
2023-03-06T14:19:00.655Z,23.91
2023-03-06T14:20:00.877Z,24.13
2023-03-06T14:21:00.733Z,24.33
2023-03-06T14:22:00.851Z,24.61
2023-03-06T14:23:01.588Z,24.70
2023-03-06T14:24:00.914Z,24.62
2023-03-06T14:25:00.602Z,24.52
2023-03-06T14:26:00.580Z,24.39
2023-03-06T14:27:00.575Z,24.37
2023-03-06T14:28:09.133Z,24.75
2023-03-06T14:29:01.812Z,24.62
2023-03-06T14:30:00.560Z,25.34
2023-03-06T14:31:00.718Z,25.19
2023-03-06T14:32:00.801Z,24.95
2023-03-06T14:33:00.530Z,24.52
2023-03-06T14:34:01.469Z,24.65
2023-03-06T14:35:00.588Z,25.29
2023-03-06T14:36:01.246Z,25.05
2023-03-06T14:52:19.926Z,26.62
2023-03-06T14:53:19.912Z,26.69
2023-03-06T14:54:19.934Z,26.79
2023-03-06T14:55:19.908Z,26.78
2023-03-06T14:56:19.917Z,27.26
2023-03-06T14:57:19.941Z,27.53
2023-03-06T14:58:19.914Z,27.81
2023-03-06T14:59:19.856Z,27.91
2023-03-06T15:00:19.988Z,28.35
2023-03-06T15:01:19.998Z,28.32
2023-03-06T15:02:20.001Z,28.34
2023-03-06T15:03:20.043Z,28.56
2023-03-06T15:04:20.090Z,28.53
2023-03-06T15:05:20.094Z,28.44
2023-03-06T15:06:20.155Z,28.42
2023-03-06T15:07:20.215Z,28.24
2023-03-06T15:08:20.174Z,28.70
2023-03-06T15:09:20.266Z,28.48
2023-03-06T15:10:20.307Z,28.54
2023-03-06T15:11:20.314Z,28.97
2023-03-06T15:12:20.353Z,28.79
2023-03-06T15:13:20.431Z,28.96
2023-03-06T15:14:20.431Z,29.15
2023-03-06T15:15:20.489Z,29.51
2023-03-06T15:16:20.542Z,29.30
2023-03-06T15:17:20.521Z,29.20
2023-03-06T15:18:20.561Z,29.28
2023-03-06T15:19:20.516Z,29.24
2023-03-06T15:20:20.584Z,29.44
2023-03-06T15:21:20.579Z,29.26
2023-03-06T15:22:20.589Z,29.08
2023-03-06T15:23:20.606Z,29.14
2023-03-06T15:24:21.135Z,29.45
2023-03-06T15:25:20.710Z,29.90
2023-03-06T15:26:20.716Z,30.46
2023-03-06T15:27:20.735Z,30.24
2023-03-06T15:28:20.746Z,30.28
2023-03-06T15:29:20.790Z,30.46
2023-03-06T15:31:20.925Z,30.31
2023-03-06T15:32:20.928Z,30.89
2023-03-06T15:33:21.097Z,31.06
2023-03-06T15:34:20.979Z,30.79
2023-03-06T15:35:20.983Z,30.94
2023-03-06T15:36:21.016Z,31.32
2023-03-06T15:37:20.985Z,30.50
2023-03-06T15:38:21.052Z,30.33
2023-03-06T15:44:21.090Z,30.65
2023-03-06T15:47:21.268Z,30.08
2023-03-06T15:49:21.278Z,30.55
2023-03-06T18:57:42.501Z,32.99
2023-03-06T18:58:42.533Z,32.83
2023-03-06T18:59:42.547Z,32.52
2023-03-06T19:00:42.494Z,32.99
2023-03-06T19:03:02.655Z,32.52
2023-03-06T19:04:03.080Z,32.53
2023-03-06T19:05:02.579Z,32.24
2023-03-06T19:06:02.564Z,32.34
2023-03-06T19:07:02.574Z,32.34
2023-03-06T19:08:02.543Z,32.52
2023-03-06T19:09:02.523Z,32.31
2023-03-06T19:10:02.565Z,32.50
2023-03-06T19:11:02.546Z,32.61
2023-03-06T19:12:02.510Z,32.80
2023-03-06T19:13:02.534Z,32.45
2023-03-06T19:14:02.525Z,32.27
2023-03-06T19:15:02.565Z,32.48
2023-03-06T19:16:02.535Z,32.39
2023-03-06T19:17:02.532Z,32.54
2023-03-06T19:18:02.477Z,32.39
2023-03-06T19:19:02.492Z,32.71
2023-03-06T19:20:02.505Z,32.73
2023-03-06T19:21:02.548Z,32.76
2023-03-06T19:22:02.528Z,32.78
2023-03-06T19:23:02.481Z,32.72
2023-03-06T19:24:02.439Z,32.81
2023-03-06T19:25:03.913Z,32.16
2023-03-06T19:26:02.449Z,32.38
2023-03-06T19:27:02.470Z,32.68
2023-03-06T19:28:02.423Z,32.60
2023-03-06T19:29:02.552Z,32.78
2023-03-06T19:30:02.447Z,32.67
2023-03-06T19:31:02.392Z,32.55
2023-03-06T19:32:02.504Z,32.69
2023-03-06T19:33:02.448Z,32.76
2023-03-06T19:34:02.365Z,32.73
2023-03-06T19:35:02.391Z,32.80
2023-03-06T19:53:21.996Z,32.67
2023-03-06T19:54:21.922Z,32.55
2023-03-06T19:55:22.031Z,32.38
2023-03-06T19:56:21.991Z,32.52
2023-03-06T19:57:21.975Z,32.95
2023-03-06T19:58:21.948Z,33.27
2023-03-06T19:59:21.965Z,33.23
2023-03-06T20:00:21.954Z,32.77
2023-03-06T20:01:22.115Z,32.40
2023-03-06T20:02:21.883Z,32.05
2023-03-06T20:03:21.908Z,31.76
2023-03-06T20:04:21.943Z,31.59
2023-03-06T20:05:21.921Z,31.62
2023-03-06T20:06:21.896Z,31.64
2023-03-06T20:07:22.003Z,31.67
2023-03-06T20:08:21.899Z,31.55
2023-03-06T21:47:41.532Z,33.98
2023-03-06T21:48:42.148Z,34.00
2023-03-06T21:50:41.455Z,33.88
2023-03-06T21:51:41.686Z,34.00
2023-03-06T21:52:41.290Z,34.15
2023-03-06T21:53:41.330Z,34.19
2023-03-06T21:54:41.666Z,34.62
2023-03-06T21:55:41.298Z,34.06
2023-03-06T21:56:41.281Z,34.06
2023-03-06T21:57:41.270Z,34.26
2023-03-06T21:58:41.250Z,34.03
2023-03-06T21:59:41.408Z,34.13
2023-03-06T22:01:41.652Z,34.49
2023-03-06T22:02:41.553Z,34.35
2023-03-06T22:03:41.285Z,34.31
2023-03-06T22:04:41.321Z,34.12
2023-03-06T22:05:41.442Z,34.55
2023-03-06T22:06:41.750Z,34.36
2023-03-06T22:07:42.183Z,34.51
2023-03-06T22:08:41.222Z,34.27
2023-03-06T22:09:41.221Z,34.48
2023-03-06T22:10:41.221Z,34.74
2023-03-06T22:11:41.194Z,34.64
2023-03-06T22:12:41.229Z,34.52
2023-03-06T22:13:41.199Z,34.33
2023-03-06T23:08:16.919Z,36.21
2023-03-06T23:09:16.901Z,36.11
2023-03-06T23:10:16.897Z,36.22
2023-03-06T23:11:16.905Z,35.80
2023-03-06T23:29:16.403Z,35.48
2023-03-06T23:30:16.328Z,35.92
2023-03-06T23:31:16.909Z,35.79
2023-03-06T23:32:16.367Z,36.37
2023-03-06T23:33:16.258Z,36.29
2023-03-06T23:34:16.223Z,36.05
2023-03-06T23:35:16.271Z,35.94
2023-03-06T23:36:16.311Z,36.24
2023-03-06T23:37:16.222Z,36.01
2023-03-06T23:38:16.214Z,36.32
2023-03-06T23:39:16.180Z,36.34
2023-03-06T23:40:16.213Z,36.07
2023-03-06T23:41:16.235Z,36.30
2023-03-06T23:42:16.192Z,36.16
2023-03-06T23:43:16.187Z,36.63
2023-03-06T23:44:16.143Z,36.88
2023-03-06T23:45:16.220Z,36.35
2023-03-06T23:46:16.237Z,36.29
2023-03-06T23:49:09.555Z,36.23
2023-03-06T23:50:09.719Z,35.96
